sensor_id;sensor_type;location;lat;lon;timestamp;P1;durP1;ratioP1;P2;durP2;ratioP2
15281;SDS011;7742;44.320;19.820;2023-12-07T12:47:29;20.03;;;18.20;;
15281;SDS011;7742;44.320;19.820;2023-12-07T12:49:56;20.70;;;17.53;;
15281;SDS011;7742;44.320;19.820;2023-12-07T12:52:23;15.70;;;14.67;;
15281;SDS011;7742;44.320;19.820;2023-12-07T12:54:51;14.00;;;13.30;;
15281;SDS011;7742;44.320;19.820;2023-12-07T12:57:18;16.03;;;15.13;;
15281;SDS011;7742;44.320;19.820;2023-12-07T12:59:45;15.27;;;14.37;;
15281;SDS011;7742;44.320;19.820;2023-12-07T13:02:13;13.80;;;12.93;;
15281;SDS011;7742;44.320;19.820;2023-12-07T13:04:41;13.37;;;12.67;;
15281;SDS011;7742;44.320;19.820;2023-12-07T13:07:10;14.23;;;13.43;;
15281;SDS011;7742;44.320;19.820;2023-12-07T13:09:37;13.63;;;12.83;;
15281;SDS011;7742;44.320;19.820;2023-12-07T13:12:05;15.00;;;14.20;;
15281;SDS011;7742;44.320;19.820;2023-12-07T13:14:32;14.50;;;13.63;;
15281;SDS011;7742;44.320;19.820;2023-12-07T13:17:00;15.20;;;14.23;;
15281;SDS011;7742;44.320;19.820;2023-12-07T13:19:29;15.47;;;14.57;;
15281;SDS011;7742;44.320;19.820;2023-12-07T13:21:58;12.67;;;11.97;;
15281;SDS011;7742;44.320;19.820;2023-12-07T13:24:25;14.07;;;13.30;;
15281;SDS011;7742;44.320;19.820;2023-12-07T13:26:52;13.80;;;13.10;;
15281;SDS011;7742;44.320;19.820;2023-12-07T13:29:19;14.70;;;13.80;;
15281;SDS011;7742;44.320;19.820;2023-12-07T13:31:46;13.23;;;12.50;;
15281;SDS011;7742;44.320;19.820;2023-12-07T13:34:16;12.93;;;12.30;;
15281;SDS011;7742;44.320;19.820;2023-12-07T13:36:43;12.70;;;12.00;;
15281;SDS011;7742;44.320;19.820;2023-12-07T13:39:11;14.23;;;13.43;;
15281;SDS011;7742;44.320;19.820;2023-12-07T13:41:39;12.70;;;12.00;;
15281;SDS011;7742;44.320;19.820;2023-12-07T13:44:06;12.50;;;11.80;;
15281;SDS011;7742;44.320;19.820;2023-12-07T13:46:33;12.70;;;11.80;;
15281;SDS011;7742;44.320;19.820;2023-12-07T13:49:02;15.57;;;14.67;;
15281;SDS011;7742;44.320;19.820;2023-12-07T13:51:29;14.87;;;13.97;;
15281;SDS011;7742;44.320;19.820;2023-12-07T13:53:56;14.50;;;13.70;;
15281;SDS011;7742;44.320;19.820;2023-12-07T13:56:25;13.60;;;12.90;;
15281;SDS011;7742;44.320;19.820;2023-12-07T13:58:52;14.23;;;13.53;;
15281;SDS011;7742;44.320;19.820;2023-12-07T14:01:19;14.93;;;14.03;;
15281;SDS011;7742;44.320;19.820;2023-12-07T14:03:46;13.80;;;13.07;;
15281;SDS011;7742;44.320;19.820;2023-12-07T14:06:20;14.90;;;14.10;;
15281;SDS011;7742;44.320;19.820;2023-12-07T14:08:47;12.67;;;11.97;;
15281;SDS011;7742;44.320;19.820;2023-12-07T14:11:15;13.40;;;12.60;;
15281;SDS011;7742;44.320;19.820;2023-12-07T14:13:43;14.13;;;13.33;;
15281;SDS011;7742;44.320;19.820;2023-12-07T14:16:11;13.40;;;12.63;;
15281;SDS011;7742;44.320;19.820;2023-12-07T14:18:39;15.03;;;14.23;;
15281;SDS011;7742;44.320;19.820;2023-12-07T14:21:06;14.63;;;13.73;;
15281;SDS011;7742;44.320;19.820;2023-12-07T14:23:33;14.63;;;13.83;;
15281;SDS011;7742;44.320;19.820;2023-12-07T14:26:01;14.20;;;13.40;;
15281;SDS011;7742;44.320;19.820;2023-12-07T14:28:28;16.40;;;15.50;;
15281;SDS011;7742;44.320;19.820;2023-12-07T14:30:57;16.70;;;15.70;;
15281;SDS011;7742;44.320;19.820;2023-12-07T14:33:24;15.60;;;14.80;;
15281;SDS011;7742;44.320;19.820;2023-12-07T14:38:54;15.70;;;14.80;;
15281;SDS011;7742;44.320;19.820;2023-12-07T14:41:21;16.37;;;15.37;;
15281;SDS011;7742;44.320;19.820;2023-12-07T14:43:48;14.83;;;14.03;;
15281;SDS011;7742;44.320;19.820;2023-12-07T14:46:17;15.87;;;14.97;;
15281;SDS011;7742;44.320;19.820;2023-12-07T14:48:44;14.57;;;13.77;;
15281;SDS011;7742;44.320;19.820;2023-12-07T14:51:11;14.67;;;13.67;;
15281;SDS011;7742;44.320;19.820;2023-12-07T14:53:37;12.83;;;12.13;;
15281;SDS011;7742;44.320;19.820;2023-12-07T14:56:04;14.20;;;13.30;;
15281;SDS011;7742;44.320;19.820;2023-12-07T14:58:32;14.13;;;13.43;;
15281;SDS011;7742;44.320;19.820;2023-12-07T15:01:00;14.57;;;13.77;;
15281;SDS011;7742;44.320;19.820;2023-12-07T15:03:31;14.73;;;13.87;;
15281;SDS011;7742;44.320;19.820;2023-12-07T15:06:07;16.37;;;15.47;;
15281;SDS011;7742;44.320;19.820;2023-12-07T15:11:43;15.50;;;14.50;;
15281;SDS011;7742;44.320;19.820;2023-12-07T15:14:10;16.17;;;15.17;;
15281;SDS011;7742;44.320;19.820;2023-12-07T15:16:37;16.10;;;15.20;;
15281;SDS011;7742;44.320;19.820;2023-12-07T15:19:06;17.27;;;16.23;;
15281;SDS011;7742;44.320;19.820;2023-12-07T15:21:33;15.60;;;14.70;;
15281;SDS011;7742;44.320;19.820;2023-12-07T15:24:00;15.67;;;14.77;;
15281;SDS011;7742;44.320;19.820;2023-12-07T15:26:28;16.07;;;15.10;;
15281;SDS011;7742;44.320;19.820;2023-12-07T15:28:55;17.10;;;16.00;;
15281;SDS011;7742;44.320;19.820;2023-12-07T15:31:22;16.53;;;15.63;;
15281;SDS011;7742;44.320;19.820;2023-12-07T15:33:49;15.93;;;15.03;;
15281;SDS011;7742;44.320;19.820;2023-12-07T15:36:17;15.40;;;14.50;;
15281;SDS011;7742;44.320;19.820;2023-12-07T15:38:44;16.67;;;15.70;;
15281;SDS011;7742;44.320;19.820;2023-12-07T15:41:11;15.17;;;14.37;;
15281;SDS011;7742;44.320;19.820;2023-12-07T15:43:38;15.67;;;14.77;;
15281;SDS011;7742;44.320;19.820;2023-12-07T15:46:05;15.30;;;14.50;;
15281;SDS011;7742;44.320;19.820;2023-12-07T15:48:33;15.87;;;14.87;;
15281;SDS011;7742;44.320;19.820;2023-12-07T15:51:00;15.20;;;14.33;;
15281;SDS011;7742;44.320;19.820;2023-12-07T15:53:29;15.77;;;14.87;;
15281;SDS011;7742;44.320;19.820;2023-12-07T15:55:55;14.77;;;13.90;;
15281;SDS011;7742;44.320;19.820;2023-12-07T15:58:22;14.70;;;13.90;;
15281;SDS011;7742;44.320;19.820;2023-12-07T16:00:49;15.27;;;14.37;;
15281;SDS011;7742;44.320;19.820;2023-12-07T16:03:26;14.57;;;13.67;;
15281;SDS011;7742;44.320;19.820;2023-12-07T16:05:54;15.90;;;14.90;;
15281;SDS011;7742;44.320;19.820;2023-12-07T16:08:22;15.60;;;14.70;;
15281;SDS011;7742;44.320;19.820;2023-12-07T16:10:51;16.00;;;15.03;;
15281;SDS011;7742;44.320;19.820;2023-12-07T16:13:18;17.17;;;16.17;;
15281;SDS011;7742;44.320;19.820;2023-12-07T16:15:44;15.97;;;14.97;;
15281;SDS011;7742;44.320;19.820;2023-12-07T16:18:11;17.10;;;16.10;;
15281;SDS011;7742;44.320;19.820;2023-12-07T16:20:38;16.47;;;15.47;;
15281;SDS011;7742;44.320;19.820;2023-12-07T16:23:05;15.83;;;14.83;;
15281;SDS011;7742;44.320;19.820;2023-12-07T16:25:32;17.90;;;16.83;;
15281;SDS011;7742;44.320;19.820;2023-12-07T16:28:02;16.23;;;15.30;;
15281;SDS011;7742;44.320;19.820;2023-12-07T16:30:28;15.93;;;15.07;;
15281;SDS011;7742;44.320;19.820;2023-12-07T16:32:55;16.07;;;15.10;;
15281;SDS011;7742;44.320;19.820;2023-12-07T16:35:22;16.20;;;15.30;;
15281;SDS011;7742;44.320;19.820;2023-12-07T16:37:49;17.00;;;15.93;;
15281;SDS011;7742;44.320;19.820;2023-12-07T16:40:16;17.93;;;16.83;;
15281;SDS011;7742;44.320;19.820;2023-12-07T16:42:44;17.33;;;16.23;;
15281;SDS011;7742;44.320;19.820;2023-12-07T16:45:14;17.10;;;16.00;;
15281;SDS011;7742;44.320;19.820;2023-12-07T16:47:43;16.03;;;15.03;;
15281;SDS011;7742;44.320;19.820;2023-12-07T16:50:13;17.83;;;16.73;;
15281;SDS011;7742;44.320;19.820;2023-12-07T16:52:40;17.17;;;16.07;;
15281;SDS011;7742;44.320;19.820;2023-12-07T16:55:07;17.43;;;16.43;;
15281;SDS011;7742;44.320;19.820;2023-12-07T16:57:34;18.97;;;17.77;;
15281;SDS011;7742;44.320;19.820;2023-12-07T17:00:07;17.83;;;16.83;;
15281;SDS011;7742;44.320;19.820;2023-12-07T17:08:35;17.57;;;16.37;;
15281;SDS011;7742;44.320;19.820;2023-12-07T17:11:01;17.93;;;16.73;;
15281;SDS011;7742;44.320;19.820;2023-12-07T17:13:29;17.30;;;16.20;;
15281;SDS011;7742;44.320;19.820;2023-12-07T17:15:56;16.90;;;15.83;;
15281;SDS011;7742;44.320;19.820;2023-12-07T17:18:24;18.43;;;17.23;;
15281;SDS011;7742;44.320;19.820;2023-12-07T17:20:51;18.67;;;17.47;;
15281;SDS011;7742;44.320;19.820;2023-12-07T17:23:21;19.77;;;18.37;;
15281;SDS011;7742;44.320;19.820;2023-12-07T17:25:49;19.07;;;17.87;;
15281;SDS011;7742;44.320;19.820;2023-12-07T17:28:16;17.83;;;16.73;;
15281;SDS011;7742;44.320;19.820;2023-12-07T17:30:43;18.17;;;17.00;;
15281;SDS011;7742;44.320;19.820;2023-12-07T17:33:10;19.73;;;18.43;;
15281;SDS011;7742;44.320;19.820;2023-12-07T17:35:37;19.40;;;18.13;;
15281;SDS011;7742;44.320;19.820;2023-12-07T17:38:09;17.03;;;15.93;;
15281;SDS011;7742;44.320;19.820;2023-12-07T17:40:54;17.70;;;16.60;;
15281;SDS011;7742;44.320;19.820;2023-12-07T17:43:21;19.60;;;18.30;;
15281;SDS011;7742;44.320;19.820;2023-12-07T17:45:49;19.37;;;18.13;;
15281;SDS011;7742;44.320;19.820;2023-12-07T17:48:17;18.90;;;17.70;;
15281;SDS011;7742;44.320;19.820;2023-12-07T17:50:43;19.17;;;17.87;;
15281;SDS011;7742;44.320;19.820;2023-12-07T17:53:10;19.77;;;18.50;;
15281;SDS011;7742;44.320;19.820;2023-12-07T17:55:40;21.23;;;19.93;;
15281;SDS011;7742;44.320;19.820;2023-12-07T17:58:13;19.93;;;18.63;;
15281;SDS011;7742;44.320;19.820;2023-12-07T18:00:43;20.23;;;18.93;;
15281;SDS011;7742;44.320;19.820;2023-12-07T18:03:14;20.37;;;19.17;;
15281;SDS011;7742;44.320;19.820;2023-12-07T18:05:41;18.83;;;17.63;;
15281;SDS011;7742;44.320;19.820;2023-12-07T18:08:16;19.20;;;17.90;;
15281;SDS011;7742;44.320;19.820;2023-12-07T18:10:43;17.80;;;16.60;;
15281;SDS011;7742;44.320;19.820;2023-12-07T18:13:14;19.40;;;18.10;;
15281;SDS011;7742;44.320;19.820;2023-12-07T18:18:51;20.37;;;18.97;;
15281;SDS011;7742;44.320;19.820;2023-12-07T18:21:18;19.20;;;17.90;;
15281;SDS011;7742;44.320;19.820;2023-12-07T18:23:45;19.57;;;18.27;;
15281;SDS011;7742;44.320;19.820;2023-12-07T18:26:12;18.70;;;17.60;;
15281;SDS011;7742;44.320;19.820;2023-12-07T18:28:40;20.77;;;19.47;;
15281;SDS011;7742;44.320;19.820;2023-12-07T18:31:07;18.00;;;16.83;;
15281;SDS011;7742;44.320;19.820;2023-12-07T18:33:34;19.37;;;18.07;;
15281;SDS011;7742;44.320;19.820;2023-12-07T18:36:04;20.17;;;18.77;;
15281;SDS011;7742;44.320;19.820;2023-12-07T18:38:31;18.87;;;17.57;;
15281;SDS011;7742;44.320;19.820;2023-12-07T18:40:58;20.67;;;19.27;;
15281;SDS011;7742;44.320;19.820;2023-12-07T18:43:25;20.40;;;19.10;;
15281;SDS011;7742;44.320;19.820;2023-12-07T18:45:53;20.27;;;18.87;;
15281;SDS011;7742;44.320;19.820;2023-12-07T18:48:20;19.73;;;18.43;;
15281;SDS011;7742;44.320;19.820;2023-12-07T18:50:47;20.57;;;19.10;;
15281;SDS011;7742;44.320;19.820;2023-12-07T18:53:14;20.70;;;19.10;;
15281;SDS011;7742;44.320;19.820;2023-12-07T18:55:41;19.37;;;18.17;;
15281;SDS011;7742;44.320;19.820;2023-12-07T18:58:08;20.50;;;19.10;;
15281;SDS011;7742;44.320;19.820;2023-12-07T19:00:35;20.63;;;19.23;;
15281;SDS011;7742;44.320;19.820;2023-12-07T19:03:03;21.30;;;19.80;;
15281;SDS011;7742;44.320;19.820;2023-12-07T19:05:30;20.40;;;19.00;;
15281;SDS011;7742;44.320;19.820;2023-12-07T19:07:57;21.13;;;19.63;;
15281;SDS011;7742;44.320;19.820;2023-12-07T19:10:24;19.93;;;18.63;;
15281;SDS011;7742;44.320;19.820;2023-12-07T19:12:51;18.80;;;17.50;;
15281;SDS011;7742;44.320;19.820;2023-12-07T19:15:18;18.53;;;17.23;;
15281;SDS011;7742;44.320;19.820;2023-12-07T19:17:52;19.30;;;17.97;;
15281;SDS011;7742;44.320;19.820;2023-12-07T19:20:20;18.90;;;17.53;;
15281;SDS011;7742;44.320;19.820;2023-12-07T19:22:47;18.77;;;17.37;;
15281;SDS011;7742;44.320;19.820;2023-12-07T19:25:15;17.73;;;16.53;;
15281;SDS011;7742;44.320;19.820;2023-12-07T19:27:47;17.93;;;16.63;;
15281;SDS011;7742;44.320;19.820;2023-12-07T19:30:15;17.83;;;16.63;;
15281;SDS011;7742;44.320;19.820;2023-12-07T19:32:41;19.07;;;17.57;;
15281;SDS011;7742;44.320;19.820;2023-12-07T19:35:08;18.30;;;17.00;;
15281;SDS011;7742;44.320;19.820;2023-12-07T19:40:45;18.17;;;16.87;;
15281;SDS011;7742;44.320;19.820;2023-12-07T19:43:24;18.67;;;17.47;;
15281;SDS011;7742;44.320;19.820;2023-12-07T19:45:50;18.63;;;17.33;;
15281;SDS011;7742;44.320;19.820;2023-12-07T19:48:20;18.30;;;17.00;;
15281;SDS011;7742;44.320;19.820;2023-12-07T19:53:33;17.80;;;16.63;;
15281;SDS011;7742;44.320;19.820;2023-12-07T19:56:04;19.03;;;17.73;;
15281;SDS011;7742;44.320;19.820;2023-12-07T19:58:33;18.93;;;17.73;;
15281;SDS011;7742;44.320;19.820;2023-12-07T20:01:01;18.57;;;17.17;;
15281;SDS011;7742;44.320;19.820;2023-12-07T20:03:28;17.97;;;16.77;;
15281;SDS011;7742;44.320;19.820;2023-12-07T20:06:07;18.43;;;17.23;;
15281;SDS011;7742;44.320;19.820;2023-12-07T20:08:55;19.40;;;18.07;;
15281;SDS011;7742;44.320;19.820;2023-12-07T20:11:23;18.20;;;16.90;;
15281;SDS011;7742;44.320;19.820;2023-12-07T20:16:54;16.20;;;15.13;;
15281;SDS011;7742;44.320;19.820;2023-12-07T20:19:34;17.23;;;16.13;;
15281;SDS011;7742;44.320;19.820;2023-12-07T20:22:06;18.73;;;17.53;;
15281;SDS011;7742;44.320;19.820;2023-12-07T20:24:49;16.77;;;15.67;;
15281;SDS011;7742;44.320;19.820;2023-12-07T20:29:48;17.40;;;16.20;;
15281;SDS011;7742;44.320;19.820;2023-12-07T20:32:15;18.87;;;17.57;;
15281;SDS011;7742;44.320;19.820;2023-12-07T20:34:42;17.50;;;16.40;;
15281;SDS011;7742;44.320;19.820;2023-12-07T20:37:10;17.33;;;16.13;;
15281;SDS011;7742;44.320;19.820;2023-12-07T20:39:38;15.30;;;14.30;;
15281;SDS011;7742;44.320;19.820;2023-12-07T20:42:05;15.57;;;14.47;;
15281;SDS011;7742;44.320;19.820;2023-12-07T20:44:32;17.83;;;16.63;;
15281;SDS011;7742;44.320;19.820;2023-12-07T20:47:01;17.80;;;16.60;;
15281;SDS011;7742;44.320;19.820;2023-12-07T20:49:28;15.67;;;14.67;;
15281;SDS011;7742;44.320;19.820;2023-12-07T20:51:55;15.93;;;14.73;;
15281;SDS011;7742;44.320;19.820;2023-12-07T20:54:22;15.17;;;14.17;;
15281;SDS011;7742;44.320;19.820;2023-12-07T20:59:53;17.70;;;16.40;;
15281;SDS011;7742;44.320;19.820;2023-12-07T21:02:24;16.33;;;15.23;;
15281;SDS011;7742;44.320;19.820;2023-12-07T21:04:51;17.10;;;16.00;;
15281;SDS011;7742;44.320;19.820;2023-12-07T21:07:18;19.10;;;17.80;;
15281;SDS011;7742;44.320;19.820;2023-12-07T21:09:45;17.83;;;16.73;;
15281;SDS011;7742;44.320;19.820;2023-12-07T21:12:12;16.70;;;15.70;;
15281;SDS011;7742;44.320;19.820;2023-12-07T21:14:39;16.83;;;15.73;;
15281;SDS011;7742;44.320;19.820;2023-12-07T21:17:08;16.67;;;15.60;;
15281;SDS011;7742;44.320;19.820;2023-12-07T21:19:42;16.73;;;15.70;;
15281;SDS011;7742;44.320;19.820;2023-12-07T21:22:33;17.57;;;16.37;;
15281;SDS011;7742;44.320;19.820;2023-12-07T21:25:00;17.10;;;16.10;;
15281;SDS011;7742;44.320;19.820;2023-12-07T21:27:27;16.53;;;15.53;;
15281;SDS011;7742;44.320;19.820;2023-12-07T21:29:55;15.43;;;14.57;;
15281;SDS011;7742;44.320;19.820;2023-12-07T21:32:22;15.47;;;14.47;;
15281;SDS011;7742;44.320;19.820;2023-12-07T21:34:50;15.87;;;14.87;;
15281;SDS011;7742;44.320;19.820;2023-12-07T21:37:17;16.33;;;15.23;;
15281;SDS011;7742;44.320;19.820;2023-12-07T21:39:44;17.07;;;15.90;;
15281;SDS011;7742;44.320;19.820;2023-12-07T21:42:11;17.87;;;16.73;;
15281;SDS011;7742;44.320;19.820;2023-12-07T21:44:38;16.73;;;15.73;;
15281;SDS011;7742;44.320;19.820;2023-12-07T21:47:05;15.50;;;14.50;;
15281;SDS011;7742;44.320;19.820;2023-12-07T21:49:32;15.57;;;14.67;;
15281;SDS011;7742;44.320;19.820;2023-12-07T21:52:00;15.67;;;14.73;;
15281;SDS011;7742;44.320;19.820;2023-12-07T21:54:28;15.67;;;14.67;;
15281;SDS011;7742;44.320;19.820;2023-12-07T21:56:56;16.37;;;15.30;;
15281;SDS011;7742;44.320;19.820;2023-12-07T21:59:23;16.07;;;15.07;;
15281;SDS011;7742;44.320;19.820;2023-12-07T22:01:50;17.20;;;16.10;;
15281;SDS011;7742;44.320;19.820;2023-12-07T22:04:18;16.43;;;15.43;;
15281;SDS011;7742;44.320;19.820;2023-12-07T22:06:45;16.53;;;15.43;;
15281;SDS011;7742;44.320;19.820;2023-12-07T22:09:13;16.93;;;15.83;;
15281;SDS011;7742;44.320;19.820;2023-12-07T22:11:42;17.07;;;16.07;;
15281;SDS011;7742;44.320;19.820;2023-12-07T22:14:09;16.53;;;15.53;;
15281;SDS011;7742;44.320;19.820;2023-12-07T22:16:39;17.23;;;16.13;;
15281;SDS011;7742;44.320;19.820;2023-12-07T22:19:06;16.20;;;15.20;;
15281;SDS011;7742;44.320;19.820;2023-12-07T22:21:33;17.17;;;16.17;;
15281;SDS011;7742;44.320;19.820;2023-12-07T22:24:00;14.57;;;13.67;;
15281;SDS011;7742;44.320;19.820;2023-12-07T22:26:28;16.37;;;15.17;;
15281;SDS011;7742;44.320;19.820;2023-12-07T22:28:55;16.03;;;15.03;;
15281;SDS011;7742;44.320;19.820;2023-12-07T22:31:22;16.43;;;15.43;;
15281;SDS011;7742;44.320;19.820;2023-12-07T22:33:49;16.47;;;15.37;;
15281;SDS011;7742;44.320;19.820;2023-12-07T22:36:16;15.83;;;14.73;;
15281;SDS011;7742;44.320;19.820;2023-12-07T22:38:44;16.60;;;15.63;;
15281;SDS011;7742;44.320;19.820;2023-12-07T22:41:11;16.37;;;15.40;;
15281;SDS011;7742;44.320;19.820;2023-12-07T22:43:40;15.73;;;14.77;;
15281;SDS011;7742;44.320;19.820;2023-12-07T22:46:07;16.70;;;15.60;;
15281;SDS011;7742;44.320;19.820;2023-12-07T22:48:34;18.97;;;17.77;;
15281;SDS011;7742;44.320;19.820;2023-12-07T22:51:01;17.27;;;16.20;;
15281;SDS011;7742;44.320;19.820;2023-12-07T22:53:28;17.43;;;16.43;;
15281;SDS011;7742;44.320;19.820;2023-12-07T22:55:55;17.87;;;16.77;;
15281;SDS011;7742;44.320;19.820;2023-12-07T22:58:21;17.20;;;16.07;;
15281;SDS011;7742;44.320;19.820;2023-12-07T23:00:50;17.77;;;16.67;;
15281;SDS011;7742;44.320;19.820;2023-12-07T23:03:17;19.20;;;18.00;;
15281;SDS011;7742;44.320;19.820;2023-12-07T23:05:44;16.93;;;15.83;;
15281;SDS011;7742;44.320;19.820;2023-12-07T23:08:11;17.87;;;16.57;;
15281;SDS011;7742;44.320;19.820;2023-12-07T23:10:38;17.47;;;16.37;;
15281;SDS011;7742;44.320;19.820;2023-12-07T23:13:05;17.87;;;16.70;;
15281;SDS011;7742;44.320;19.820;2023-12-07T23:15:33;17.07;;;15.97;;
15281;SDS011;7742;44.320;19.820;2023-12-07T23:18:01;16.83;;;15.83;;
15281;SDS011;7742;44.320;19.820;2023-12-07T23:20:28;18.97;;;17.70;;
15281;SDS011;7742;44.320;19.820;2023-12-07T23:22:55;18.47;;;17.27;;
15281;SDS011;7742;44.320;19.820;2023-12-07T23:25:22;17.73;;;16.63;;
15281;SDS011;7742;44.320;19.820;2023-12-07T23:27:49;17.83;;;16.67;;
15281;SDS011;7742;44.320;19.820;2023-12-07T23:30:16;19.23;;;17.93;;
15281;SDS011;7742;44.320;19.820;2023-12-07T23:32:43;17.50;;;16.40;;
15281;SDS011;7742;44.320;19.820;2023-12-07T23:38:15;17.30;;;16.20;;
15281;SDS011;7742;44.320;19.820;2023-12-07T23:40:42;18.33;;;17.23;;
15281;SDS011;7742;44.320;19.820;2023-12-07T23:43:27;18.07;;;16.87;;
15281;SDS011;7742;44.320;19.820;2023-12-07T23:45:54;16.97;;;15.97;;
15281;SDS011;7742;44.320;19.820;2023-12-07T23:48:21;18.80;;;17.60;;
15281;SDS011;7742;44.320;19.820;2023-12-07T23:50:50;18.67;;;17.57;;
15281;SDS011;7742;44.320;19.820;2023-12-07T23:53:31;16.47;;;15.47;;
15281;SDS011;7742;44.320;19.820;2023-12-07T23:55:58;17.57;;;16.57;;
15281;SDS011;7742;44.320;19.820;2023-12-07T23:58:25;18.47;;;17.37;;
